createdAt,value
2019-05-23T00:00:40.029Z,9.25
2019-05-23T00:03:10.490Z,9.73
2019-05-23T00:05:47.424Z,8.95
2019-05-23T00:08:18.505Z,8.43
2019-05-23T00:11:04.283Z,8.35
2019-05-23T00:13:38.217Z,8.70
2019-05-23T00:16:09.191Z,9.25
2019-05-23T00:18:38.356Z,8.38
2019-05-23T00:21:09.542Z,9.68
2019-05-23T00:26:08.552Z,9.15
2019-05-23T00:28:39.293Z,9.73
2019-05-23T00:31:22.615Z,8.55
2019-05-23T00:33:52.556Z,8.10
2019-05-23T00:36:24.858Z,7.75
2019-05-23T00:38:55.604Z,7.28
2019-05-23T00:41:25.365Z,7.72
2019-05-23T00:43:55.124Z,8.13
2019-05-23T00:46:24.783Z,7.33
2019-05-23T00:48:55.727Z,7.78
2019-05-23T00:51:25.362Z,7.78
2019-05-23T00:53:54.923Z,7.62
2019-05-23T00:56:24.849Z,7.03
2019-05-23T00:58:55.129Z,7.47
2019-05-23T01:01:26.023Z,8.40
2019-05-23T01:03:56.394Z,8.20
2019-05-23T01:06:25.670Z,8.33
2019-05-23T01:08:56.007Z,8.40
2019-05-23T01:11:25.771Z,8.47
2019-05-23T01:13:56.300Z,7.80
2019-05-23T01:16:26.841Z,8.38
2019-05-23T01:18:56.312Z,7.40
2019-05-23T01:21:33.342Z,7.58
2019-05-23T01:24:04.229Z,7.03
2019-05-23T01:26:34.462Z,8.20
2019-05-23T01:29:05.144Z,7.40
2019-05-23T01:31:38.873Z,7.83
2019-05-23T01:34:09.805Z,7.62
2019-05-23T01:36:39.587Z,7.53
2019-05-23T01:39:10.491Z,7.00
2019-05-23T01:41:40.334Z,7.25
2019-05-23T01:44:11.555Z,6.83
2019-05-23T01:49:10.061Z,6.92
2019-05-23T01:51:39.155Z,7.42
2019-05-23T01:54:09.570Z,7.60
2019-05-23T01:56:39.408Z,7.25
2019-05-23T01:59:08.719Z,7.33
2019-05-23T02:01:39.098Z,7.30
2019-05-23T02:04:09.053Z,6.65
2019-05-23T02:06:38.490Z,7.42
2019-05-23T02:09:09.459Z,7.20
2019-05-23T02:11:39.099Z,6.95
2019-05-23T02:14:08.968Z,7.17
2019-05-23T02:16:39.694Z,7.33
2019-05-23T02:19:13.438Z,6.92
2019-05-23T02:21:41.123Z,7.87
2019-05-23T02:24:12.181Z,7.75
2019-05-23T02:26:41.446Z,7.92
2019-05-23T02:29:10.919Z,7.45
2019-05-23T02:31:41.413Z,7.50
2019-05-23T02:34:12.066Z,7.03
2019-05-23T02:36:42.183Z,7.40
2019-05-23T02:39:13.803Z,7.17
2019-05-23T02:41:54.100Z,8.00
2019-05-23T02:44:25.408Z,8.10
2019-05-23T02:46:59.827Z,8.13
2019-05-23T02:49:32.579Z,8.25
2019-05-23T02:52:16.668Z,8.10
2019-05-23T02:54:45.931Z,7.67
2019-05-23T02:57:19.371Z,7.72
2019-05-23T02:59:52.573Z,8.43
2019-05-23T03:02:47.490Z,7.85
2019-05-23T03:05:18.450Z,8.13
2019-05-23T03:07:48.191Z,8.15
2019-05-23T03:10:20.341Z,7.85
2019-05-23T03:12:53.038Z,11.93
2019-05-23T03:15:24.957Z,8.18
2019-05-23T03:17:55.707Z,7.47
2019-05-23T03:20:27.045Z,7.08
2019-05-23T03:23:12.554Z,8.38
2019-05-23T03:25:57.439Z,8.38
2019-05-23T03:28:28.967Z,8.70
2019-05-23T03:31:25.350Z,9.00
2019-05-23T03:33:30.687Z,8.85
2019-05-23T03:35:59.982Z,8.55
2019-05-23T03:38:29.672Z,9.55
2019-05-23T03:40:59.640Z,9.95
2019-05-23T03:43:29.209Z,10.25
2019-05-23T03:46:03.441Z,10.25
2019-05-23T03:48:34.215Z,9.25
2019-05-23T03:51:03.457Z,9.58
2019-05-23T03:53:32.775Z,9.78
2019-05-23T03:56:01.985Z,9.65
2019-05-23T03:58:31.711Z,10.15
2019-05-23T04:01:02.591Z,10.60
2019-05-23T04:03:33.006Z,11.10
2019-05-23T04:06:02.697Z,10.65
2019-05-23T04:08:32.521Z,10.88
2019-05-23T04:11:01.856Z,11.03
2019-05-23T04:13:30.970Z,10.68
2019-05-23T04:16:00.566Z,10.68
2019-05-23T04:18:33.002Z,10.68
2019-05-23T04:21:02.383Z,10.40
2019-05-23T04:23:31.485Z,9.90
2019-05-23T04:26:00.625Z,9.95
2019-05-23T04:28:30.306Z,10.13
2019-05-23T04:31:00.332Z,10.35
2019-05-23T04:33:30.010Z,9.53
2019-05-23T04:35:59.860Z,10.20
2019-05-23T04:38:30.439Z,9.43
2019-05-23T04:40:59.797Z,9.73
2019-05-23T04:43:28.959Z,12.85
2019-05-23T04:45:58.569Z,9.50
2019-05-23T04:48:29.413Z,9.10
2019-05-23T04:51:00.179Z,9.35
2019-05-23T04:53:30.761Z,9.25
2019-05-23T04:56:00.801Z,9.60
2019-05-23T04:58:29.907Z,8.70
2019-05-23T05:01:00.512Z,8.93
2019-05-23T05:03:30.675Z,7.28
2019-05-23T05:05:59.906Z,7.80
2019-05-23T05:08:30.654Z,5.70
2019-05-23T05:11:00.502Z,5.85
2019-05-23T05:13:30.847Z,6.42
2019-05-23T05:16:00.125Z,6.23
2019-05-23T05:18:30.628Z,6.03
2019-05-23T05:21:00.036Z,5.10
2019-05-23T05:23:29.355Z,4.40
2019-05-23T05:25:58.534Z,4.20
2019-05-23T05:28:27.855Z,4.33
2019-05-23T05:30:57.486Z,3.52
2019-05-23T05:33:26.701Z,3.45
2019-05-23T05:35:56.170Z,8.30
2019-05-23T05:38:28.604Z,3.33
2019-05-23T05:40:57.026Z,3.10
2019-05-23T05:43:26.387Z,2.62
2019-05-23T05:45:56.467Z,3.00
2019-05-23T05:48:25.709Z,2.80
2019-05-23T05:50:55.491Z,3.08
2019-05-23T05:53:24.842Z,3.20
2019-05-23T05:55:54.192Z,2.67
2019-05-23T05:58:23.513Z,3.08
2019-05-23T06:01:06.676Z,2.72
2019-05-23T06:03:36.224Z,2.70
2019-05-23T06:06:23.474Z,2.98
2019-05-23T06:08:54.924Z,2.50
2019-05-23T06:11:24.174Z,2.40
2019-05-23T06:13:53.684Z,2.83
2019-05-23T06:16:23.405Z,2.70
2019-05-23T06:18:52.950Z,2.60
2019-05-23T06:21:24.377Z,2.65
2019-05-23T06:23:53.897Z,2.50
2019-05-23T06:26:23.258Z,2.72
2019-05-23T06:28:52.654Z,2.85
2019-05-23T06:31:22.451Z,3.10
2019-05-23T06:33:52.680Z,3.22
2019-05-23T06:36:21.926Z,3.20
2019-05-23T06:39:02.592Z,3.35
2019-05-23T06:41:30.027Z,3.10
2019-05-23T06:43:59.298Z,3.00
2019-05-23T06:46:28.535Z,2.62
2019-05-23T06:48:57.783Z,2.50
2019-05-23T06:51:27.534Z,2.62
2019-05-23T06:53:56.844Z,2.12
2019-05-23T06:56:26.365Z,2.15
2019-05-23T06:58:55.640Z,2.00
2019-05-23T07:01:24.861Z,1.95
2019-05-23T07:03:54.095Z,2.30
2019-05-23T07:06:25.155Z,2.22
2019-05-23T07:11:23.913Z,1.70
2019-05-23T07:13:53.212Z,2.08
2019-05-23T07:16:22.518Z,1.90
2019-05-23T07:18:51.860Z,1.87
2019-05-23T07:21:21.523Z,1.92
2019-05-23T07:23:50.738Z,1.90
2019-05-23T07:26:20.038Z,2.70
2019-05-23T07:28:49.518Z,2.08
2019-05-23T07:31:18.628Z,3.00
2019-05-23T07:34:01.330Z,2.08
2019-05-23T07:36:18.900Z,2.10
2019-05-23T07:38:48.076Z,2.17
2019-05-23T07:41:18.106Z,2.10
2019-05-23T07:43:47.367Z,2.00
2019-05-23T07:46:16.550Z,2.17
2019-05-23T07:48:45.797Z,2.05
2019-05-23T07:51:15.074Z,2.10
2019-05-23T07:53:46.494Z,2.62
2019-05-23T07:56:17.404Z,2.40
2019-05-23T07:58:47.013Z,11.73
2019-05-23T08:01:17.975Z,2.17
2019-05-23T08:03:50.557Z,1.90
2019-05-23T08:06:20.912Z,2.08
2019-05-23T08:08:51.120Z,1.60
2019-05-23T08:11:20.462Z,1.87
2019-05-23T08:13:50.418Z,2.42
2019-05-23T08:16:19.743Z,2.20
2019-05-23T08:18:48.994Z,1.92
2019-05-23T08:21:21.519Z,2.00
2019-05-23T08:23:51.988Z,2.00
2019-05-23T08:26:21.623Z,1.55
2019-05-23T08:29:21.751Z,1.82
2019-05-23T08:31:22.362Z,1.50
2019-05-23T08:33:51.614Z,1.67
2019-05-23T08:36:20.801Z,1.98
2019-05-23T08:38:49.986Z,1.80
2019-05-23T08:41:19.386Z,1.72
2019-05-23T08:43:48.950Z,2.10
2019-05-23T08:46:18.720Z,1.77
2019-05-23T08:48:48.066Z,1.92
2019-05-23T08:51:17.607Z,2.08
2019-05-23T08:53:46.942Z,2.10
2019-05-23T08:56:19.646Z,1.75
2019-05-23T08:58:47.908Z,1.80
2019-05-23T09:01:17.440Z,2.10
2019-05-23T09:03:47.691Z,1.95
2019-05-23T09:06:18.070Z,1.90
2019-05-23T09:08:47.268Z,2.08
2019-05-23T09:11:17.920Z,2.70
2019-05-23T09:13:47.478Z,2.15
2019-05-23T09:16:16.846Z,1.77
2019-05-23T09:18:46.109Z,2.00
2019-05-23T09:21:15.915Z,2.02
2019-05-23T09:23:45.198Z,2.20
2019-05-23T09:26:14.430Z,2.00
2019-05-23T09:28:43.744Z,1.98
2019-05-23T09:31:13.262Z,2.00
2019-05-23T09:33:42.567Z,1.80
2019-05-23T09:36:11.864Z,3.15
2019-05-23T09:38:41.342Z,2.00
2019-05-23T09:41:10.528Z,1.92
2019-05-23T09:43:39.926Z,5.92
2019-05-23T09:46:09.048Z,1.98
2019-05-23T09:48:38.203Z,2.12
2019-05-23T09:51:07.325Z,2.20
2019-05-23T09:53:36.627Z,2.22
2019-05-23T09:56:05.820Z,2.90
2019-05-23T09:58:34.945Z,2.52
2019-05-23T10:01:04.624Z,2.62
2019-05-23T10:03:33.909Z,2.90
2019-05-23T10:06:03.197Z,3.00
2019-05-23T10:08:32.313Z,2.75
2019-05-23T10:11:01.616Z,2.00
2019-05-23T10:13:39.119Z,4.80
2019-05-23T10:16:03.769Z,2.02
2019-05-23T10:18:35.246Z,2.02
2019-05-23T10:21:04.902Z,1.90
2019-05-23T10:23:34.233Z,2.50
2019-05-23T10:26:04.382Z,2.30
2019-05-23T10:28:33.798Z,2.87
2019-05-23T10:31:07.583Z,1.90
2019-05-23T10:33:37.047Z,1.87
2019-05-23T10:36:06.242Z,2.10
2019-05-23T10:38:35.447Z,2.05
2019-05-23T10:41:05.502Z,2.05
2019-05-23T10:43:34.710Z,2.00
2019-05-23T10:46:04.204Z,2.40
2019-05-23T10:48:34.184Z,2.10
2019-05-23T10:51:03.322Z,1.98
2019-05-23T10:53:32.638Z,2.50
2019-05-23T10:56:01.880Z,2.00
2019-05-23T10:58:31.322Z,1.72
2019-05-23T11:01:00.687Z,1.80
2019-05-23T11:03:30.930Z,2.30
2019-05-23T11:06:15.092Z,1.90
2019-05-23T11:08:31.098Z,1.98
2019-05-23T11:11:00.673Z,1.57
2019-05-23T11:13:30.686Z,1.45
2019-05-23T11:16:00.191Z,1.50
2019-05-23T11:18:30.068Z,1.45
2019-05-23T11:20:59.296Z,1.60
2019-05-23T11:23:33.412Z,1.37
2019-05-23T11:26:03.399Z,1.60
2019-05-23T11:28:36.358Z,1.90
2019-05-23T11:31:07.766Z,1.72
2019-05-23T11:33:37.035Z,1.80
2019-05-23T11:36:06.813Z,1.92
2019-05-23T11:38:36.214Z,1.57
2019-05-23T11:41:05.607Z,2.10
2019-05-23T11:43:34.771Z,2.02
2019-05-23T11:46:05.982Z,2.35
2019-05-23T11:48:36.061Z,2.30
2019-05-23T11:51:05.339Z,2.03
2019-05-23T11:53:34.615Z,2.83
2019-05-23T11:56:03.890Z,1.62
2019-05-23T11:58:33.200Z,1.87
2019-05-23T12:01:09.784Z,1.82
2019-05-23T12:03:39.470Z,2.30
2019-05-23T12:06:08.853Z,2.10
2019-05-23T12:08:38.178Z,2.75
2019-05-23T12:11:07.428Z,1.80
2019-05-23T12:13:36.859Z,1.80
2019-05-23T12:16:07.629Z,1.60
2019-05-23T12:18:37.155Z,2.02
2019-05-23T12:21:07.476Z,1.85
2019-05-23T12:23:36.844Z,1.35
2019-05-23T12:26:06.139Z,1.30
2019-05-23T12:28:35.435Z,1.67
2019-05-23T12:31:05.661Z,1.50
2019-05-23T12:33:35.009Z,1.60
2019-05-23T12:36:07.764Z,1.60
2019-05-23T12:38:36.988Z,1.92
2019-05-23T12:41:07.211Z,1.60
2019-05-23T12:43:36.419Z,4.20
2019-05-23T12:46:07.407Z,1.75
2019-05-23T12:48:54.832Z,1.95
2019-05-23T12:51:28.675Z,1.62
2019-05-23T12:53:58.028Z,1.30
2019-05-23T12:56:27.363Z,1.80
2019-05-23T12:58:57.340Z,1.40
2019-05-23T13:01:27.215Z,1.20
2019-05-23T13:03:56.854Z,1.40
2019-05-23T13:06:26.411Z,1.45
2019-05-23T13:08:55.774Z,1.17
2019-05-23T13:11:25.450Z,1.20
2019-05-23T13:13:54.711Z,1.20
2019-05-23T13:16:25.160Z,1.10
2019-05-23T13:18:54.439Z,1.10
2019-05-23T13:21:24.053Z,1.12
2019-05-23T13:23:53.676Z,0.80
2019-05-23T13:26:24.033Z,0.80
2019-05-23T13:28:54.667Z,0.90
2019-05-23T13:31:24.702Z,0.72
2019-05-23T13:33:54.098Z,0.80
2019-05-23T13:36:23.620Z,0.82
2019-05-23T13:38:53.160Z,0.70
2019-05-23T13:41:22.530Z,0.70
2019-05-23T13:43:53.833Z,0.62
2019-05-23T13:46:23.091Z,0.70
2019-05-23T13:48:52.216Z,0.80
2019-05-23T13:51:21.324Z,0.80
2019-05-23T13:53:50.518Z,1.00
2019-05-23T13:56:20.279Z,0.72
2019-05-23T13:58:50.095Z,0.90
2019-05-23T14:01:19.380Z,1.20
2019-05-23T14:03:48.659Z,2.58
2019-05-23T14:06:17.885Z,0.90
2019-05-23T14:08:47.118Z,0.80
2019-05-23T14:11:16.300Z,0.82
2019-05-23T14:13:45.959Z,1.05
2019-05-23T14:16:16.157Z,1.70
2019-05-23T14:18:45.402Z,1.10
2019-05-23T14:21:14.642Z,1.02
2019-05-23T14:23:43.922Z,0.93
2019-05-23T14:26:13.561Z,1.02
2019-05-23T14:28:42.999Z,0.97
2019-05-23T14:31:13.822Z,0.70
2019-05-23T14:33:48.030Z,1.20
2019-05-23T14:36:21.780Z,0.70
2019-05-23T14:38:52.711Z,0.65
2019-05-23T14:41:22.057Z,0.90
2019-05-23T14:43:52.621Z,1.20
2019-05-23T14:46:22.599Z,0.80
2019-05-23T14:49:11.805Z,0.80
2019-05-23T14:51:52.850Z,0.90
2019-05-23T14:54:23.758Z,1.30
2019-05-23T14:56:52.950Z,1.10
2019-05-23T14:59:23.489Z,1.67
2019-05-23T15:04:22.560Z,0.60
2019-05-23T15:06:51.835Z,1.75
2019-05-23T15:09:22.064Z,0.60
2019-05-23T15:11:51.904Z,3.22
2019-05-23T15:14:21.144Z,0.93
2019-05-23T15:16:50.331Z,2.70
2019-05-23T15:19:38.805Z,0.80
2019-05-23T15:21:50.263Z,0.70
2019-05-23T15:24:19.717Z,0.70
2019-05-23T15:26:48.994Z,0.80
2019-05-23T15:29:18.276Z,0.82
2019-05-23T15:32:01.021Z,0.98
2019-05-23T15:34:18.425Z,0.70
2019-05-23T15:36:47.712Z,0.70
2019-05-23T15:39:18.477Z,1.37
2019-05-23T15:44:29.022Z,1.57
2019-05-23T15:49:26.009Z,1.10
2019-05-23T15:51:56.817Z,1.10
2019-05-23T15:54:39.691Z,2.35
2019-05-23T15:57:11.371Z,1.32
2019-05-23T15:59:48.034Z,1.20
2019-05-23T16:02:24.749Z,1.10
2019-05-23T16:04:55.830Z,0.95
2019-05-23T16:07:25.411Z,1.00
2019-05-23T16:09:54.677Z,1.40
2019-05-23T16:12:24.818Z,1.40
2019-05-23T16:14:53.992Z,1.30
2019-05-23T16:17:23.220Z,2.12
2019-05-23T16:19:52.511Z,3.08
2019-05-23T16:22:21.733Z,1.98
2019-05-23T16:24:50.927Z,1.30
2019-05-23T16:27:20.715Z,3.00
2019-05-23T16:29:49.885Z,1.80
2019-05-23T16:32:19.152Z,1.65
2019-05-23T16:34:48.459Z,1.80
2019-05-23T16:37:18.088Z,1.82
2019-05-23T16:39:49.859Z,1.32
2019-05-23T16:44:46.992Z,1.45
2019-05-23T16:47:16.254Z,1.10
2019-05-23T16:49:45.536Z,0.95
2019-05-23T16:52:14.858Z,0.90
2019-05-23T16:54:46.190Z,1.02
2019-05-23T16:57:35.261Z,1.10
2019-05-23T17:00:25.987Z,0.82
2019-05-23T17:03:13.933Z,1.30
2019-05-23T17:05:45.052Z,1.50
2019-05-23T17:08:18.489Z,1.65
2019-05-23T17:10:52.357Z,1.60
2019-05-23T17:13:27.903Z,1.50
2019-05-23T17:16:04.775Z,1.67
2019-05-23T17:18:53.972Z,1.82
2019-05-23T17:21:44.509Z,1.50
2019-05-23T17:24:33.659Z,1.57
2019-05-23T17:27:07.534Z,1.17
2019-05-23T17:29:41.293Z,1.47
2019-05-23T17:32:12.396Z,1.00
2019-05-23T17:37:10.748Z,0.75
2019-05-23T17:39:40.122Z,1.15
2019-05-23T17:42:09.393Z,1.10
2019-05-23T17:44:38.620Z,0.95
2019-05-23T17:47:08.076Z,1.07
2019-05-23T17:49:37.630Z,1.02
2019-05-23T17:52:07.957Z,1.42
2019-05-23T17:54:37.422Z,2.25
2019-05-23T17:57:06.668Z,2.10
2019-05-23T17:59:36.149Z,1.60
2019-05-23T18:02:07.408Z,1.42
2019-05-23T18:04:36.863Z,13.95
2019-05-23T18:07:07.384Z,3.80
2019-05-23T18:09:37.251Z,2.70
2019-05-23T18:12:07.668Z,1.65
2019-05-23T18:14:37.465Z,2.25
2019-05-23T18:17:07.609Z,1.80
2019-05-23T18:19:36.917Z,1.75
2019-05-23T18:22:08.032Z,2.83
2019-05-23T18:27:07.787Z,4.53
2019-05-23T18:29:37.114Z,3.95
2019-05-23T18:32:08.484Z,3.70
2019-05-23T18:34:38.883Z,3.45
2019-05-23T18:37:08.610Z,3.35
2019-05-23T18:39:38.356Z,3.92
2019-05-23T18:42:07.940Z,1.95
2019-05-23T18:44:37.791Z,1.55
2019-05-23T18:47:08.789Z,1.80
2019-05-23T18:49:38.179Z,1.72
2019-05-23T18:52:07.466Z,2.85
2019-05-23T18:54:36.745Z,2.42
2019-05-23T18:57:06.259Z,2.87
2019-05-23T18:59:35.467Z,2.40
2019-05-23T19:02:13.395Z,2.00
2019-05-23T19:04:42.709Z,2.08
2019-05-23T19:07:12.988Z,2.70
2019-05-23T19:09:42.957Z,3.20
2019-05-23T19:12:12.475Z,2.90
2019-05-23T19:14:41.746Z,2.67
2019-05-23T19:17:11.012Z,2.83
2019-05-23T19:19:40.192Z,2.52
2019-05-23T19:22:09.935Z,5.67
2019-05-23T19:24:39.223Z,3.20
2019-05-23T19:27:10.004Z,2.65
2019-05-23T19:29:40.033Z,4.30
2019-05-23T19:32:09.877Z,5.72
2019-05-23T19:34:39.139Z,5.05
2019-05-23T19:37:09.498Z,5.10
2019-05-23T19:39:39.566Z,4.85
2019-05-23T19:42:09.729Z,5.60
2019-05-23T19:44:39.014Z,5.50
2019-05-23T19:47:08.260Z,5.75
2019-05-23T19:49:37.850Z,5.33
2019-05-23T19:52:07.687Z,5.62
2019-05-23T19:54:37.020Z,4.90
2019-05-23T19:57:06.513Z,5.22
2019-05-23T19:59:35.725Z,5.22
2019-05-23T20:02:08.222Z,5.60
2019-05-23T20:04:42.155Z,5.20
2019-05-23T20:08:13.466Z,4.22
2019-05-23T20:10:43.547Z,4.53
2019-05-23T20:13:12.831Z,4.85
2019-05-23T20:15:45.687Z,4.47
2019-05-23T20:18:13.469Z,4.97
2019-05-23T20:20:42.671Z,4.58
2019-05-23T20:23:15.797Z,4.40
2019-05-23T20:25:43.668Z,3.80
2019-05-23T20:28:12.931Z,4.12
2019-05-23T20:30:48.585Z,5.40
2019-05-23T20:33:17.812Z,5.37
2019-05-23T20:35:47.154Z,6.40
2019-05-23T20:38:16.747Z,6.65
2019-05-23T20:40:46.899Z,7.55
2019-05-23T20:43:16.166Z,7.12
2019-05-23T20:45:45.404Z,7.35
2019-05-23T20:48:14.694Z,7.50
2019-05-23T20:50:44.114Z,7.67
2019-05-23T20:53:13.541Z,6.60
2019-05-23T20:55:43.178Z,5.60
2019-05-23T20:58:12.463Z,6.05
2019-05-23T21:00:58.866Z,5.50
2019-05-23T21:03:28.124Z,6.62
2019-05-23T21:05:57.293Z,5.90
2019-05-23T21:08:26.608Z,5.90
2019-05-23T21:10:55.773Z,5.70
2019-05-23T21:13:24.995Z,7.17
2019-05-23T21:15:54.269Z,6.67
2019-05-23T21:18:23.558Z,7.45
2019-05-23T21:20:52.729Z,7.12
2019-05-23T21:23:22.112Z,7.75
2019-05-23T21:25:56.182Z,6.20
2019-05-23T21:28:25.477Z,5.45
2019-05-23T21:30:54.860Z,4.90
2019-05-23T21:33:24.395Z,5.17
2019-05-23T21:35:53.667Z,6.72
2019-05-23T21:38:23.433Z,5.60
2019-05-23T21:40:52.534Z,4.53
2019-05-23T21:43:21.770Z,4.55
2019-05-23T21:45:51.016Z,5.45
2019-05-23T21:48:20.774Z,4.45
2019-05-23T21:50:49.987Z,4.40
2019-05-23T21:53:19.317Z,4.37
2019-05-23T21:55:48.438Z,3.60
2019-05-23T21:58:17.662Z,3.45
2019-05-23T22:01:00.505Z,3.27
2019-05-23T22:03:31.366Z,3.00
2019-05-23T22:06:01.289Z,3.00
2019-05-23T22:08:30.926Z,2.98
2019-05-23T22:11:00.133Z,3.00
2019-05-23T22:13:29.382Z,3.15
2019-05-23T22:15:58.579Z,2.90
2019-05-23T22:18:27.848Z,2.95
2019-05-23T22:20:57.099Z,3.40
2019-05-23T22:23:26.371Z,3.70
2019-05-23T22:25:55.540Z,4.12
2019-05-23T22:28:24.730Z,3.67
2019-05-23T22:30:53.920Z,3.45
2019-05-23T22:33:24.839Z,3.70
2019-05-23T22:35:54.392Z,4.15
2019-05-23T22:38:23.618Z,4.20
2019-05-23T22:40:52.762Z,4.65
2019-05-23T22:43:21.979Z,3.98
2019-05-23T22:45:51.246Z,4.10
2019-05-23T22:48:20.474Z,4.58
2019-05-23T22:50:49.616Z,4.55
2019-05-23T22:53:18.986Z,4.80
2019-05-23T22:55:48.166Z,4.62
2019-05-23T22:58:17.440Z,4.28
2019-05-23T23:00:48.343Z,4.90
2019-05-23T23:03:17.543Z,4.70
2019-05-23T23:05:46.783Z,4.85
2019-05-23T23:08:16.816Z,4.83
2019-05-23T23:10:45.976Z,4.80
2019-05-23T23:13:15.595Z,5.08
2019-05-23T23:15:44.874Z,5.58
2019-05-23T23:18:14.188Z,5.00
2019-05-23T23:20:45.970Z,5.00
2019-05-23T23:23:14.205Z,5.28
2019-05-23T23:25:43.604Z,4.72
2019-05-23T23:28:15.767Z,5.03
2019-05-23T23:30:49.177Z,5.50
2019-05-23T23:33:18.492Z,5.10
2019-05-23T23:35:47.711Z,4.90
2019-05-23T23:38:17.001Z,5.15
2019-05-23T23:40:46.109Z,4.53
2019-05-23T23:43:15.313Z,4.87
2019-05-23T23:46:02.619Z,4.50
2019-05-23T23:48:49.826Z,4.85
2019-05-23T23:51:36.819Z,4.15
2019-05-23T23:54:23.929Z,4.78
2019-05-23T23:57:11.234Z,4.55
2019-05-23T23:59:39.731Z,5.35
